Time;durP1;ratioP1;P1;durP2;ratioP2;P2;SDS_P1;SDS_P2;PMS_P1;PMS_P2;Temp;Humidity;BMP_temperature;BMP_pressure;BME280_temperature;BME280_humidity;BME280_pressure;Samples;Min_cycle;Max_cycle;Signal;HPM_P1;HPM_P2
2024/02/13 00:09:48;;;;;;;2.53;1.88;;;2.40;99.90;;;;;;20683228;28;20138;-45
2024/02/13 00:19:52;;;;;;;2.33;1.70;;;2.70;99.90;;;;;;20684301;28;20052;-44
2024/02/13 00:29:54;;;;;;;2.00;1.20;;;2.80;99.90;;;;;;20684315;28;20036;-43
2024/02/13 00:39:57;;;;;;;0.90;0.70;;;2.90;99.90;;;;;;20681682;28;20080;-46
2024/02/13 00:49:59;;;;;;;0.75;0.60;;;2.90;99.90;;;;;;20679222;28;20189;-46
2024/02/13 01:00:03;;;;;;;1.15;0.50;;;3.00;99.90;;;;;;20666021;28;20062;-43
2024/02/13 01:10:07;;;;;;;0.88;0.55;;;3.10;99.90;;;;;;20663495;28;20068;-44
2024/02/13 01:20:11;;;;;;;0.60;0.43;;;3.20;99.90;;;;;;20680522;28;20487;-43
2024/02/13 01:30:16;;;;;;;0.95;0.65;;;3.00;99.90;;;;;;20677466;28;21123;-44
2024/02/13 01:40:18;;;;;;;6.72;6.18;;;3.20;99.90;;;;;;20679532;28;20642;-45
2024/02/13 01:50:20;;;;;;;1.40;1.08;;;3.30;99.90;;;;;;20676394;28;20072;-42
2024/02/13 02:00:22;;;;;;;0.98;0.70;;;3.40;99.90;;;;;;20677116;28;20060;-43
2024/02/13 02:10:24;;;;;;;3.17;2.92;;;3.40;99.90;;;;;;20674672;28;20123;-43
2024/02/13 02:20:26;;;;;;;8.73;8.07;;;3.40;99.90;;;;;;20658073;28;21306;-44
2024/02/13 02:30:32;;;;;;;0.40;0.30;;;3.70;99.90;;;;;;20659156;28;20068;-42
2024/02/13 02:40:39;;;;;;;1.20;0.40;;;3.60;99.90;;;;;;20672973;28;20095;-44
2024/02/13 02:50:41;;;;;;;0.70;0.43;;;3.30;99.90;;;;;;20670819;28;20157;-43
2024/02/13 03:00:43;;;;;;;1.42;1.15;;;3.40;99.90;;;;;;20672502;28;20205;-42
2024/02/13 03:10:46;;;;;;;10.82;9.25;;;3.60;99.90;;;;;;20666336;28;20809;-42
2024/02/13 03:20:48;;;;;;;13.48;2.35;;;3.40;99.90;;;;;;20653627;28;20134;-43
2024/02/13 03:30:53;;;;;;;0.50;0.13;;;3.10;99.90;;;;;;20671805;28;20102;-42
2024/02/13 03:40:56;;;;;;;3.75;3.38;;;2.90;99.90;;;;;;20670718;28;20130;-43
2024/02/13 03:50:57;;;;;;;17.88;16.13;;;3.00;99.90;;;;;;20650043;28;20085;-41
2024/02/13 04:00:59;;;;;;;1.13;1.13;;;3.10;99.90;;;;;;20650731;28;20165;-43
2024/02/13 04:11:03;;;;;;;16.63;14.80;;;3.30;99.90;;;;;;20669118;28;20147;-42
2024/02/13 04:21:05;;;;;;;0.40;0.20;;;3.30;99.90;;;;;;20666531;28;20084;-46
2024/02/13 04:31:14;;;;;;;0.45;0.10;;;3.10;99.90;;;;;;20675688;28;20163;-44
2024/02/13 04:41:18;;;;;;;0.08;0.00;;;3.00;99.90;;;;;;20682860;28;20072;-44
2024/02/13 04:51:24;;;;;;;0.20;0.10;;;2.80;99.90;;;;;;20681622;28;20077;-45
2024/02/13 05:01:26;;;;;;;0.20;0.10;;;2.20;99.90;;;;;;20683307;28;20100;-42
2024/02/13 05:11:27;;;;;;;0.40;0.15;;;2.10;99.90;;;;;;20661579;28;20126;-43
2024/02/13 05:21:29;;;;;;;0.70;0.32;;;2.30;99.90;;;;;;20677120;28;20081;-43
2024/02/13 05:31:31;;;;;;;2.08;1.88;;;2.60;99.90;;;;;;20679752;28;20080;-42
2024/02/13 05:41:32;;;;;;;0.52;0.22;;;2.60;99.90;;;;;;20674421;28;20068;-42
2024/02/13 05:51:35;;;;;;;0.20;0.10;;;2.40;99.90;;;;;;20656745;28;20069;-44
2024/02/13 06:01:36;;;;;;;1.42;1.33;;;2.20;99.90;;;;;;20676461;28;20475;-43
2024/02/13 06:11:38;;;;;;;0.28;0.10;;;2.20;99.90;;;;;;20657132;28;20069;-45
2024/02/13 06:21:40;;;;;;;0.50;0.10;;;2.20;99.90;;;;;;20675807;28;20143;-42
2024/02/13 06:31:42;;;;;;;0.13;0.10;;;2.10;99.90;;;;;;20417781;28;20185;-42
2024/02/13 06:41:47;;;;;;;0.28;0.10;;;2.00;99.90;;;;;;20419249;28;20081;-42
2024/02/13 06:51:48;;;;;;;0.10;0.08;;;2.20;99.90;;;;;;20414273;28;20564;-43
2024/02/13 07:01:50;;;;;;;2.22;2.10;;;2.40;99.90;;;;;;20610829;28;20072;-42
2024/02/13 07:11:53;;;;;;;0.10;0.10;;;2.60;99.90;;;;;;20411283;28;20177;-43
2024/02/13 07:21:57;;;;;;;0.57;0.57;;;2.70;99.90;;;;;;20411543;28;21256;-44
2024/02/13 07:32:03;;;;;;;3.33;3.13;;;3.10;99.90;;;;;;20411109;28;20862;-42
2024/02/13 07:42:05;;;;;;;0.00;0.00;;;3.20;99.90;;;;;;20616393;28;20068;-45
2024/02/13 07:52:08;;;;;;;0.30;0.30;;;3.60;99.70;;;;;;20668181;28;21546;-46
2024/02/13 08:02:10;;;;;;;0.45;0.45;;;4.10;98.90;;;;;;20669329;28;20069;-44
2024/02/13 08:12:12;;;;;;;0.10;0.00;;;4.40;97.20;;;;;;20680176;28;20060;-44
2024/02/13 08:22:15;;;;;;;0.17;0.00;;;4.70;96.10;;;;;;20678171;28;21133;-43
2024/02/13 08:32:20;;;;;;;1.27;0.00;;;5.00;95.30;;;;;;20682180;28;20041;-45
2024/02/13 08:42:21;;;;;;;0.30;0.00;;;5.40;94.40;;;;;;20678838;28;20118;-43
2024/02/13 08:52:26;;;;;;;0.10;0.10;;;5.70;94.40;;;;;;20677845;28;20138;-44
2024/02/13 09:02:27;;;;;;;0.50;0.10;;;5.90;93.10;;;;;;20677726;28;20037;-43
2024/02/13 09:12:33;;;;;;;0.15;0.00;;;6.10;92.20;;;;;;20674546;28;20195;-45
2024/02/13 09:22:35;;;;;;;1.05;1.05;;;6.40;91.40;;;;;;20670439;28;20100;-45
2024/02/13 09:32:37;;;;;;;0.20;0.10;;;7.00;91.10;;;;;;20644240;28;21212;-46
2024/02/13 09:42:46;;;;;;;0.10;0.00;;;7.30;88.90;;;;;;20663351;22;20041;-43
2024/02/13 09:52:54;;;;;;;0.08;0.00;;;7.30;87.90;;;;;;20592233;28;20163;-42
2024/02/13 10:02:57;;;;;;;0.20;0.00;;;7.20;86.60;;;;;;20574064;28;20063;-43
2024/02/13 10:13:00;;;;;;;0.88;0.03;;;7.30;87.70;;;;;;20588931;28;21575;-42
2024/02/13 10:23:02;;;;;;;0.10;0.00;;;7.70;86.60;;;;;;20589622;28;20038;-43
2024/02/13 10:33:06;;;;;;;0.15;0.10;;;7.90;84.90;;;;;;20589703;28;20042;-42
2024/02/13 10:43:12;;;;;;;0.20;0.17;;;8.30;84.30;;;;;;20588616;28;20111;-43
2024/02/13 10:53:15;;;;;;;0.63;0.20;;;8.60;88.40;;;;;;20580417;28;20115;-44
2024/02/13 11:03:17;;;;;;;0.35;0.13;;;8.50;87.50;;;;;;20586633;28;21441;-41
2024/02/13 11:13:21;;;;;;;0.10;0.10;;;8.60;86.00;;;;;;20583461;28;20139;-41
2024/02/13 11:23:29;;;;;;;0.50;0.10;;;8.70;86.20;;;;;;20565299;28;20565;-42
2024/02/13 11:33:31;;;;;;;0.68;0.10;;;9.20;89.80;;;;;;20583875;28;20033;-46
2024/02/13 11:43:33;;;;;;;0.10;0.10;;;10.40;89.50;;;;;;20582240;28;20109;-43
2024/02/13 11:53:35;;;;;;;0.75;0.20;;;10.70;85.10;;;;;;20582217;28;20222;-45
2024/02/13 12:03:38;;;;;;;0.52;0.10;;;10.50;85.50;;;;;;20567818;28;20510;-43
2024/02/13 12:13:40;;;;;;;0.13;0.00;;;10.30;83.40;;;;;;20581571;28;21149;-42
2024/02/13 12:23:46;;;;;;;0.55;0.10;;;10.40;80.30;;;;;;20583337;28;21447;-42
2024/02/13 12:33:48;;;;;;;0.22;0.13;;;10.90;81.60;;;;;;20582303;28;20093;-44
2024/02/13 12:43:50;;;;;;;0.03;0.00;;;11.00;80.30;;;;;;20581531;28;20088;-44
2024/02/13 12:53:52;;;;;;;0.57;0.20;;;11.00;81.10;;;;;;20592607;28;20093;-42
2024/02/13 13:03:57;;;;;;;1.50;0.10;;;11.30;78.80;;;;;;20597166;28;20077;-43
2024/02/13 13:14:01;;;;;;;0.30;0.10;;;11.60;82.00;;;;;;20597433;28;20096;-44
2024/02/13 13:24:04;;;;;;;0.32;0.10;;;11.60;79.70;;;;;;20594388;28;20065;-42
2024/02/13 13:34:08;;;;;;;0.10;0.08;;;11.00;78.20;;;;;;20593374;28;20868;-42
2024/02/13 13:44:10;;;;;;;0.75;0.30;;;10.90;79.50;;;;;;20593835;28;20182;-43
2024/02/13 13:54:12;;;;;;;1.52;0.35;;;10.60;83.40;;;;;;20590911;28;20080;-43
2024/02/13 14:04:17;;;;;;;0.88;0.40;;;10.20;85.30;;;;;;20590931;28;20080;-41
2024/02/13 14:14:19;;;;;;;0.80;0.40;;;9.60;86.90;;;;;;20576453;28;20806;-41
2024/02/13 14:24:20;;;;;;;2.05;1.10;;;8.90;87.00;;;;;;20590808;28;20074;-41
2024/02/13 14:34:26;;;;;;;2.53;1.50;;;8.40;93.10;;;;;;20591875;28;20477;-42
2024/02/13 14:44:32;;;;;;;3.05;1.90;;;8.10;94.70;;;;;;20587510;28;20116;-42
2024/02/13 14:54:37;;;;;;;2.97;1.33;;;7.90;95.80;;;;;;20589139;28;20091;-41
2024/02/13 15:04:39;;;;;;;2.40;1.30;;;7.60;94.70;;;;;;20586961;28;20199;-41
2024/02/13 15:14:42;;;;;;;2.40;1.40;;;7.10;95.10;;;;;;20413781;28;20402;-41
2024/02/13 15:24:44;;;;;;;3.08;1.48;;;6.70;96.20;;;;;;20414504;28;20932;-41
2024/02/13 15:34:46;;;;;;;3.15;1.23;;;6.50;96.40;;;;;;20416039;28;21142;-41
2024/02/13 15:55:28;;;;;;;1.50;0.70;;;5.10;99.00;;;;;;20373521;28;20550;-40
2024/02/13 16:05:31;;;;;;;1.45;0.63;;;4.30;99.70;;;;;;20372389;28;20172;-40
2024/02/13 16:15:37;;;;;;;3.38;0.60;;;3.70;99.90;;;;;;20370897;28;20219;-40
2024/02/13 16:25:42;;;;;;;0.80;0.30;;;3.30;99.90;;;;;;20419406;28;20085;-41
2024/02/13 16:35:44;;;;;;;0.88;0.38;;;2.90;99.90;;;;;;20426892;28;20125;-41
2024/02/13 16:45:46;;;;;;;0.82;0.32;;;2.60;99.90;;;;;;20412443;28;20090;-41
2024/02/13 16:55:48;;;;;;;0.47;0.30;;;2.20;99.90;;;;;;20410814;28;20744;-58
2024/02/13 17:05:50;;;;;;;2.05;0.30;;;2.00;99.90;;;;;;20427240;28;20148;-39
2024/02/13 17:15:54;;;;;;;0.40;0.20;;;1.80;99.90;;;;;;20436591;28;20124;-41
2024/02/13 17:25:56;;;;;;;1.75;0.20;;;1.60;99.90;;;;;;20436448;28;21693;-40
2024/02/13 17:35:58;;;;;;;1.17;0.50;;;1.40;99.90;;;;;;20437128;28;21216;-39
2024/02/13 17:46:00;;;;;;;0.82;0.50;;;1.30;99.90;;;;;;20492515;28;20089;-40
2024/02/13 17:56:02;;;;;;;1.27;0.52;;;1.20;99.90;;;;;;20598113;28;20132;-39
2024/02/13 18:06:07;;;;;;;1.27;0.75;;;1.20;99.90;;;;;;20599872;28;20789;-39
2024/02/13 18:16:12;;;;;;;0.77;0.47;;;1.20;99.90;;;;;;20597501;28;20069;-39
2024/02/13 18:26:20;;;;;;;2.47;0.80;;;1.00;99.90;;;;;;20577513;28;20073;-39
2024/02/13 18:36:25;;;;;;;1.60;0.93;;;0.90;99.90;;;;;;20587618;28;21303;-41
2024/02/13 18:46:27;;;;;;;2.25;1.10;;;0.90;99.90;;;;;;20593057;28;21185;-40
2024/02/13 18:56:32;;;;;;;1.27;0.65;;;0.80;99.90;;;;;;20580173;28;20282;-39
2024/02/13 19:06:34;;;;;;;0.95;0.65;;;0.90;99.90;;;;;;20526126;28;20037;-39
2024/02/13 19:16:40;;;;;;;1.50;0.50;;;0.90;99.90;;;;;;20533573;28;20791;-39
2024/02/13 19:26:43;;;;;;;0.82;0.40;;;0.80;99.90;;;;;;20528690;28;20037;-39
2024/02/13 19:36:45;;;;;;;1.45;0.47;;;0.80;99.90;;;;;;20532901;28;20214;-42
2024/02/13 19:46:50;;;;;;;0.98;0.40;;;0.70;99.90;;;;;;20533805;28;20567;-40
2024/02/13 19:57:12;;;;;;;0.95;0.50;;;0.70;99.90;;;;;;20516765;28;21292;-39
2024/02/13 20:07:37;;;;;;;1.00;0.50;;;0.50;99.90;;;;;;20527544;28;20172;-40
2024/02/13 20:17:39;;;;;;;1.33;0.50;;;0.40;99.90;;;;;;20528854;28;20128;-39
2024/02/13 20:27:45;;;;;;;1.48;0.40;;;0.50;99.90;;;;;;20538182;28;20121;-40
2024/02/13 20:37:47;;;;;;;1.00;0.40;;;0.50;99.90;;;;;;20545083;28;20124;-40
2024/02/13 20:47:51;;;;;;;2.45;0.52;;;0.50;99.90;;;;;;20541960;28;20232;-40
2024/02/13 20:57:55;;;;;;;1.85;0.40;;;0.50;99.90;;;;;;20540941;28;20155;-40
2024/02/13 21:07:58;;;;;;;0.50;0.20;;;0.50;99.90;;;;;;20538795;28;21014;-42
2024/02/13 21:18:00;;;;;;;1.08;0.47;;;0.50;99.90;;;;;;20537957;28;20885;-40
2024/02/13 21:28:02;;;;;;;1.02;0.50;;;0.30;99.90;;;;;;20540253;28;21038;-42
2024/02/13 21:38:04;;;;;;;0.95;0.40;;;0.40;99.90;;;;;;20539831;28;20163;-40
2024/02/13 21:48:09;;;;;;;1.52;0.70;;;0.30;99.90;;;;;;20534250;28;20132;-40
2024/02/13 21:58:11;;;;;;;1.15;0.40;;;0.20;99.90;;;;;;20538149;28;20152;-40
2024/02/13 22:08:13;;;;;;;1.08;0.47;;;0.20;99.90;;;;;;20537272;28;21226;-40
2024/02/13 22:18:15;;;;;;;0.77;0.50;;;0.20;99.90;;;;;;20527057;28;21516;-39
2024/02/13 22:28:17;;;;;;;1.63;0.82;;;0.10;99.90;;;;;;20533977;28;20168;-39
2024/02/13 22:38:19;;;;;;;1.83;0.80;;;0.20;99.90;;;;;;20536180;28;20061;-40
2024/02/13 22:48:26;;;;;;;1.58;0.68;;;0.20;99.90;;;;;;20531978;28;20140;-39
2024/02/13 22:58:28;;;;;;;1.60;0.73;;;0.10;99.90;;;;;;20530052;28;20203;-40
2024/02/13 23:08:34;;;;;;;1.92;0.80;;;0.30;99.90;;;;;;20534880;28;21140;-42
2024/02/13 23:18:37;;;;;;;1.10;0.60;;;0.50;99.90;;;;;;20532012;28;20184;-39
2024/02/13 23:28:39;;;;;;;1.42;0.70;;;0.30;99.90;;;;;;20530285;28;20175;-39
2024/02/13 23:38:41;;;;;;;1.90;0.82;;;0.20;99.90;;;;;;20529130;28;20764;-40
2024/02/13 23:48:43;;;;;;;1.38;0.70;;;0.20;99.90;;;;;;20531426;28;20046;-40
2024/02/13 23:58:48;;;;;;;1.65;0.75;;;0.10;99.90;;;;;;20530148;28;20485;-40
